Time;durP1;ratioP1;P1;durP2;ratioP2;P2;SDS_P1;SDS_P2;PMS_P1;PMS_P2;Temp;Humidity;BMP_temperature;BMP_pressure;BME280_temperature;BME280_humidity;BME280_pressure;Samples;Min_cycle;Max_cycle;Signal;HPM_P1;HPM_P2
2021/05/08 00:02:19;;;;;;;7.65;6.03;;;;;;;12.33;91.49;99394.24;1816204;79;21002;-53
2021/05/08 00:04:47;;;;;;;8.63;6.85;;;;;;;12.34;91.33;99405.48;1816064;78;21038;-53
2021/05/08 00:07:15;;;;;;;10.45;6.87;;;;;;;12.33;91.10;99405.25;1816334;78;20978;-53
2021/05/08 00:09:43;;;;;;;8.28;6.28;;;;;;;12.31;91.16;99419.88;1815947;79;21323;-53
2021/05/08 00:12:11;;;;;;;10.48;6.08;;;;;;;12.32;91.35;99413.80;1816166;78;20994;-53
2021/05/08 00:14:39;;;;;;;7.97;5.85;;;;;;;12.31;91.25;99403.93;1816055;79;21054;-53
2021/05/08 00:17:06;;;;;;;8.48;6.20;;;;;;;12.28;91.15;99385.52;1816184;79;21034;-53
2021/05/08 00:19:34;;;;;;;8.33;5.80;;;;;;;12.31;91.16;99367.56;1816238;79;21006;-54
2021/05/08 00:22:02;;;;;;;7.87;6.45;;;;;;;12.34;91.18;99369.69;1816266;79;21380;-53
2021/05/08 00:24:30;;;;;;;8.03;6.67;;;;;;;12.33;91.20;99372.22;1816037;79;21001;-53
2021/05/08 00:26:58;;;;;;;9.18;6.90;;;;;;;12.31;91.48;99386.03;1816343;79;21018;-54
2021/05/08 00:29:26;;;;;;;7.85;6.87;;;;;;;12.30;91.73;99398.97;1816081;79;20997;-54
2021/05/08 00:31:54;;;;;;;9.30;6.85;;;;;;;12.29;91.69;99395.98;1816245;78;20982;-54
2021/05/08 00:34:23;;;;;;;7.37;5.80;;;;;;;12.29;91.66;99401.48;1816179;79;21373;-53
2021/05/08 00:36:50;;;;;;;8.33;6.85;;;;;;;12.25;91.53;99394.39;1815802;78;21620;-53
2021/05/08 00:39:18;;;;;;;10.30;6.35;;;;;;;12.25;91.59;99396.34;1816019;79;21023;-53
2021/05/08 00:41:46;;;;;;;9.65;6.80;;;;;;;12.24;91.59;99385.88;1815636;79;21053;-53
2021/05/08 00:44:14;;;;;;;7.55;6.20;;;;;;;12.25;91.56;99375.70;1815935;79;21010;-53
2021/05/08 00:46:42;;;;;;;7.60;5.97;;;;;;;12.24;91.46;99370.73;1788497;79;21202;-53
2021/05/08 00:49:10;;;;;;;9.13;6.00;;;;;;;12.26;91.35;99362.16;1815866;79;20966;-53
2021/05/08 00:51:39;;;;;;;8.38;6.10;;;;;;;12.25;91.35;99358.61;1815953;79;20997;-53
2021/05/08 00:54:06;;;;;;;9.03;6.45;;;;;;;12.22;91.22;99360.61;1815878;79;21021;-54
2021/05/08 00:56:34;;;;;;;8.55;6.33;;;;;;;12.18;91.28;99357.42;1815876;79;21029;-53
2021/05/08 00:59:02;;;;;;;10.13;6.92;;;;;;;12.14;91.38;99348.15;1815786;79;21201;-54
2021/05/08 01:01:30;;;;;;;11.25;7.10;;;;;;;12.08;91.57;99346.88;1815799;79;21303;-54
2021/05/08 01:03:58;;;;;;;11.03;6.72;;;;;;;12.05;91.94;99349.45;1815835;79;21014;-53
2021/05/08 01:06:26;;;;;;;8.85;6.85;;;;;;;12.02;92.24;99353.63;1815434;79;21009;-54
2021/05/08 01:08:54;;;;;;;9.25;6.85;;;;;;;11.99;92.49;99358.38;1815917;79;21041;-53
2021/05/08 01:11:26;;;;;;;11.08;7.17;;;;;;;11.99;92.75;99352.87;1815800;79;21244;-53
2021/05/08 01:13:54;;;;;;;11.30;7.47;;;;;;;11.98;92.94;99342.98;1815812;79;21017;-53
2021/05/08 01:16:22;;;;;;;11.65;7.67;;;;;;;11.97;93.20;99352.36;1815852;79;21049;-53
2021/05/08 01:18:55;;;;;;;9.93;6.90;;;;;;;11.96;93.50;99367.80;1815895;79;20986;-54
2021/05/08 01:21:23;;;;;;;8.75;7.60;;;;;;;11.97;93.57;99374.37;1815951;79;21049;-53
2021/05/08 01:23:52;;;;;;;9.50;7.28;;;;;;;11.96;93.68;99376.89;1815818;79;21142;-53
2021/05/08 01:26:21;;;;;;;8.23;6.62;;;;;;;11.97;93.83;99373.56;1816000;79;21022;-53
2021/05/08 01:28:49;;;;;;;10.20;7.05;;;;;;;11.98;93.82;99382.89;1788578;79;21053;-53
2021/05/08 01:31:16;;;;;;;8.98;7.00;;;;;;;12.01;93.67;99380.89;1815758;79;21013;-53
2021/05/08 01:33:44;;;;;;;9.10;6.15;;;;;;;12.01;93.44;99379.52;1815831;79;21057;-53
2021/05/08 01:36:12;;;;;;;8.93;6.80;;;;;;;12.01;93.38;99393.27;1815799;79;21193;-53
2021/05/08 01:38:40;;;;;;;9.83;7.60;;;;;;;12.01;93.57;99391.89;1816141;78;21005;-53
2021/05/08 01:41:11;;;;;;;7.78;6.72;;;;;;;12.01;93.74;99386.39;1816219;79;21045;-53
2021/05/08 01:43:39;;;;;;;9.10;7.22;;;;;;;11.99;93.66;99384.52;1815928;78;21013;-53
2021/05/08 01:46:07;;;;;;;8.58;6.50;;;;;;;11.97;93.66;99374.37;1816215;79;20986;-53
2021/05/08 01:48:37;;;;;;;8.93;7.10;;;;;;;11.98;93.68;99373.25;1816040;79;21333;-53
2021/05/08 01:51:05;;;;;;;10.72;7.22;;;;;;;11.98;93.72;99373.25;1816198;79;21024;-53
2021/05/08 01:53:33;;;;;;;8.65;6.78;;;;;;;11.97;93.74;99371.62;1816024;79;21651;-53
2021/05/08 01:56:00;;;;;;;10.08;7.20;;;;;;;11.98;93.98;99373.25;1816228;78;21441;-53
2021/05/08 01:58:30;;;;;;;8.88;7.20;;;;;;;11.99;94.05;99385.90;1816121;79;20978;-53
2021/05/08 02:01:00;;;;;;;8.35;7.35;;;;;;;11.97;93.95;99384.00;1816080;79;21623;-52
2021/05/08 02:03:31;;;;;;;10.32;7.35;;;;;;;11.96;93.84;99378.27;1815944;79;21053;-52
2021/05/08 02:06:00;;;;;;;8.30;7.10;;;;;;;11.93;93.70;99371.95;1790812;79;21021;-52
2021/05/08 02:08:47;;;;;;;11.20;7.50;;;;;;;11.91;93.59;99390.14;1816132;79;21021;-52
2021/05/08 02:11:17;;;;;;;10.08;7.55;;;;;;;11.90;93.48;99390.45;1814999;79;21611;-52
2021/05/08 02:13:45;;;;;;;9.30;8.03;;;;;;;11.90;93.35;99384.95;1816062;79;21192;-52
2021/05/08 02:16:13;;;;;;;7.75;6.33;;;;;;;11.90;93.36;99383.03;1816077;79;21022;-52
2021/05/08 02:18:41;;;;;;;8.65;7.35;;;;;;;11.91;93.03;99383.27;1815994;79;21025;-52
2021/05/08 02:21:10;;;;;;;8.20;6.87;;;;;;;11.88;92.80;99385.25;1816221;79;21021;-52
2021/05/08 02:23:39;;;;;;;8.25;6.70;;;;;;;11.88;92.77;99391.33;1815503;79;21579;-53
2021/05/08 02:26:07;;;;;;;7.72;6.05;;;;;;;11.86;92.49;99387.52;1816340;79;20974;-53
2021/05/08 02:28:35;;;;;;;8.70;6.97;;;;;;;11.83;92.34;99389.51;1816186;79;21036;-53
2021/05/08 02:31:02;;;;;;;11.97;7.72;;;;;;;11.81;92.36;99391.73;1816316;79;21049;-53
2021/05/08 02:33:31;;;;;;;10.13;7.62;;;;;;;11.82;92.39;99386.50;1816201;79;21290;-53
2021/05/08 02:35:59;;;;;;;10.00;7.97;;;;;;;11.83;92.25;99385.92;1816232;79;21006;-53
2021/05/08 02:38:27;;;;;;;8.93;7.17;;;;;;;11.83;92.13;99384.01;1816122;79;21193;-53
2021/05/08 02:40:55;;;;;;;8.85;6.75;;;;;;;11.82;92.04;99383.74;1788707;79;21017;-53
2021/05/08 02:43:26;;;;;;;8.90;7.15;;;;;;;11.82;92.05;99388.45;1815890;79;21030;-53
2021/05/08 02:45:56;;;;;;;11.43;8.00;;;;;;;11.82;91.98;99387.07;1815213;79;21623;-53
2021/05/08 02:48:24;;;;;;;9.38;7.67;;;;;;;11.81;91.81;99379.36;1815941;79;20985;-53
2021/05/08 02:50:55;;;;;;;11.90;7.53;;;;;;;11.80;91.95;99372.79;1816039;79;21194;-53
2021/05/08 02:53:23;;;;;;;10.20;7.78;;;;;;;11.81;91.97;99368.92;1815408;79;21018;-53
2021/05/08 02:55:51;;;;;;;8.43;6.10;;;;;;;11.81;91.94;99373.86;1816008;79;21037;-53
2021/05/08 02:58:20;;;;;;;10.30;7.37;;;;;;;11.80;91.89;99370.84;1816129;79;21603;-53
2021/05/08 03:00:52;;;;;;;8.35;7.35;;;;;;;11.80;92.05;99372.22;1815938;79;21616;-53
2021/05/08 03:03:21;;;;;;;8.30;6.22;;;;;;;11.83;92.13;99381.26;1816027;79;21377;-53
2021/05/08 03:05:50;;;;;;;8.85;7.25;;;;;;;11.85;92.12;99376.82;1815934;79;21622;-53
2021/05/08 03:08:19;;;;;;;8.38;6.50;;;;;;;11.86;92.19;99378.42;1815924;79;21172;-53
2021/05/08 03:10:48;;;;;;;9.33;6.92;;;;;;;11.88;92.15;99381.70;1815892;79;20990;-53
2021/05/08 03:13:17;;;;;;;12.55;6.85;;;;;;;11.87;92.06;99378.12;1815953;79;21156;-53
2021/05/08 03:15:45;;;;;;;7.85;6.20;;;;;;;11.88;92.19;99359.13;1815994;79;21196;-53
2021/05/08 03:18:13;;;;;;;9.18;6.15;;;;;;;11.88;92.02;99345.94;1815963;79;21049;-53
2021/05/08 03:20:41;;;;;;;7.60;5.58;;;;;;;11.90;92.00;99343.67;1815999;79;21026;-53
2021/05/08 03:23:09;;;;;;;9.83;6.22;;;;;;;11.91;92.17;99352.19;1815827;79;21034;-53
2021/05/08 03:25:36;;;;;;;11.53;7.15;;;;;;;11.91;92.02;99364.58;1815627;79;21017;-53
2021/05/08 03:28:04;;;;;;;9.18;6.83;;;;;;;11.89;92.04;99366.83;1816038;79;21362;-53
2021/05/08 03:30:34;;;;;;;8.63;6.45;;;;;;;11.89;91.98;99375.09;1815826;79;21033;-53
2021/05/08 03:33:04;;;;;;;10.58;6.72;;;;;;;11.86;92.10;99372.38;1815558;79;21017;-53
2021/05/08 03:35:32;;;;;;;9.45;6.30;;;;;;;11.88;92.21;99377.58;1815592;79;21053;-52
2021/05/08 03:38:00;;;;;;;12.65;6.55;;;;;;;11.93;92.30;99376.07;1816175;79;21017;-53
2021/05/08 03:40:27;;;;;;;8.33;6.45;;;;;;;11.97;92.09;99359.23;1816273;78;21261;-53
2021/05/08 03:42:56;;;;;;;10.98;8.15;;;;;;;11.98;91.95;99365.00;1816106;78;21025;-53
2021/05/08 03:45:25;;;;;;;9.40;6.65;;;;;;;11.97;91.94;99371.62;1816178;79;21045;-53
2021/05/08 03:47:53;;;;;;;9.50;7.35;;;;;;;11.97;92.04;99368.86;1816186;79;21026;-53
2021/05/08 03:50:20;;;;;;;12.20;7.25;;;;;;;11.98;91.96;99376.00;1816357;79;21006;-53
2021/05/08 03:52:49;;;;;;;12.23;7.00;;;;;;;12.00;91.81;99368.24;1816219;79;22301;-53
2021/05/08 03:55:17;;;;;;;8.23;6.40;;;;;;;12.02;91.80;99364.64;1816156;79;21061;-53
2021/05/08 03:57:45;;;;;;;15.68;7.25;;;;;;;12.04;91.81;99359.63;1765565;79;21038;-53
2021/05/08 04:00:14;;;;;;;10.25;7.53;;;;;;;12.05;91.68;99359.89;1816138;79;21060;-53
2021/05/08 04:02:43;;;;;;;8.95;8.03;;;;;;;12.10;91.85;99361.70;1816170;79;21010;-53
2021/05/08 04:05:11;;;;;;;11.48;8.15;;;;;;;12.14;91.84;99369.59;1816029;79;21136;-53
2021/05/08 04:07:39;;;;;;;9.63;7.45;;;;;;;12.17;91.65;99379.18;1816174;79;21010;-53
2021/05/08 04:10:09;;;;;;;11.93;6.67;;;;;;;12.19;91.57;99381.05;1816232;79;21041;-53
2021/05/08 04:12:36;;;;;;;10.58;6.78;;;;;;;12.24;91.59;99380.94;1816114;79;20974;-53
2021/05/08 04:15:06;;;;;;;12.07;7.80;;;;;;;12.27;91.13;99381.16;1816179;79;21049;-53
2021/05/08 04:17:34;;;;;;;9.28;8.08;;;;;;;12.27;90.83;99389.95;1816269;79;21353;-53
2021/05/08 04:20:02;;;;;;;13.15;7.53;;;;;;;12.28;90.32;99387.46;1816134;79;20990;-53
2021/05/08 04:22:29;;;;;;;9.80;7.42;;;;;;;12.27;90.17;99389.41;1816105;79;20986;-53
2021/05/08 04:24:57;;;;;;;11.57;7.60;;;;;;;12.30;90.28;99393.46;1816162;79;21045;-53
2021/05/08 04:27:24;;;;;;;12.07;7.62;;;;;;;12.31;90.25;99400.60;1816158;78;20981;-53
2021/05/08 04:29:55;;;;;;;10.05;8.23;;;;;;;12.35;90.18;99392.55;1816192;79;21365;-53
2021/05/08 04:32:22;;;;;;;10.08;8.38;;;;;;;12.36;89.97;99399.66;1816320;79;20974;-53
2021/05/08 04:34:50;;;;;;;11.10;8.35;;;;;;;12.39;89.75;99408.70;1816085;79;20986;-53
2021/05/08 04:37:17;;;;;;;12.60;8.30;;;;;;;12.37;89.07;99410.37;1812923;78;21002;-53
2021/05/08 04:39:45;;;;;;;12.05;8.28;;;;;;;12.33;89.29;99413.52;1811180;79;21030;-53
2021/05/08 04:42:13;;;;;;;9.45;8.45;;;;;;;12.31;88.95;99421.83;1811012;79;21371;-53
2021/05/08 04:44:42;;;;;;;9.63;7.87;;;;;;;12.26;89.00;99418.60;1808199;79;21014;-53
2021/05/08 04:47:12;;;;;;;11.80;7.42;;;;;;;12.25;89.02;99423.88;1808502;79;20951;-53
2021/05/08 04:49:40;;;;;;;10.80;7.42;;;;;;;12.21;88.75;99420.11;1808223;79;21029;-53
2021/05/08 04:52:08;;;;;;;13.85;8.55;;;;;;;12.20;88.87;99415.72;1808497;79;21061;-54
2021/05/08 04:54:36;;;;;;;12.68;8.23;;;;;;;12.23;89.01;99424.73;1808229;79;21344;-54
2021/05/08 04:57:05;;;;;;;9.80;7.08;;;;;;;12.26;88.64;99438.70;1808564;79;21002;-54
2021/05/08 04:59:34;;;;;;;10.03;8.30;;;;;;;12.24;88.21;99435.43;1808362;79;21344;-52
2021/05/08 05:02:03;;;;;;;11.25;8.38;;;;;;;12.24;87.56;99433.25;1808422;79;21026;-52
2021/05/08 05:04:31;;;;;;;8.55;6.55;;;;;;;12.19;87.24;99426.47;1808438;79;21160;-52
2021/05/08 05:06:58;;;;;;;10.93;7.45;;;;;;;12.19;87.29;99438.86;1808520;79;22375;-52
2021/05/08 05:09:28;;;;;;;10.30;8.18;;;;;;;12.16;87.07;99442.23;1808470;79;21595;-52
2021/05/08 05:11:55;;;;;;;10.03;7.85;;;;;;;12.12;86.79;99443.96;1808350;79;21002;-52
2021/05/08 05:14:23;;;;;;;10.88;7.83;;;;;;;12.09;86.78;99452.30;1808337;79;21044;-52
2021/05/08 05:16:52;;;;;;;9.45;7.15;;;;;;;12.10;86.69;99450.61;1808363;79;21030;-52
2021/05/08 05:19:20;;;;;;;12.70;6.97;;;;;;;12.09;86.73;99453.10;1808497;79;21197;-52
2021/05/08 05:21:48;;;;;;;10.82;8.43;;;;;;;12.09;86.55;99447.59;1808348;79;21070;-52
2021/05/08 05:24:16;;;;;;;9.95;8.63;;;;;;;12.08;86.71;99441.83;1808265;79;20974;-52
2021/05/08 05:26:43;;;;;;;10.55;8.13;;;;;;;12.15;87.12;99446.13;1808259;79;21639;-52
2021/05/08 05:29:11;;;;;;;10.18;8.43;;;;;;;12.18;86.98;99440.00;1808551;79;21022;-52
2021/05/08 05:31:38;;;;;;;8.85;6.33;;;;;;;12.20;86.65;99441.33;1808095;79;21139;-52
2021/05/08 05:34:07;;;;;;;10.53;6.75;;;;;;;12.24;86.11;99442.89;1808377;79;20994;-52
2021/05/08 05:36:35;;;;;;;8.25;6.28;;;;;;;12.25;85.15;99443.15;1808989;79;21038;-52
2021/05/08 05:39:03;;;;;;;8.45;5.90;;;;;;;12.28;84.60;99448.03;1813565;78;20986;-52
2021/05/08 05:41:32;;;;;;;7.85;6.33;;;;;;;12.26;83.58;99446.97;1813683;79;22116;-52
2021/05/08 05:46:38;;;;;;;9.48;6.87;;;;;;;12.30;83.79;99458.16;1846462;76;23392;-53
2021/05/08 05:49:05;;;;;;;9.03;5.90;;;;;;;12.24;83.39;99449.77;1816587;79;20985;-53
2021/05/08 05:51:33;;;;;;;7.80;6.35;;;;;;;12.25;83.31;99452.78;1816553;78;21189;-53
2021/05/08 05:54:01;;;;;;;7.55;5.20;;;;;;;12.26;83.16;99454.39;1785552;79;21038;-53
2021/05/08 05:56:28;;;;;;;8.63;5.60;;;;;;;12.25;82.43;99452.78;1816625;78;20981;-53
2021/05/08 05:58:59;;;;;;;8.50;5.72;;;;;;;12.23;82.28;99452.26;1816534;79;21687;-54
2021/05/08 06:01:27;;;;;;;8.20;5.80;;;;;;;12.22;82.30;99458.34;1816710;79;21013;-53
2021/05/08 06:03:54;;;;;;;6.72;5.22;;;;;;;12.22;81.67;99452.03;1815396;78;21197;-53
2021/05/08 06:06:22;;;;;;;7.00;5.03;;;;;;;12.18;81.15;99453.77;1784444;80;21021;-53
2021/05/08 06:08:49;;;;;;;5.72;4.22;;;;;;;12.14;81.42;99461.00;1784601;79;20970;-53
2021/05/08 06:11:17;;;;;;;8.90;3.90;;;;;;;12.11;81.21;99461.05;1784409;80;20978;-53
2021/05/08 06:13:44;;;;;;;6.22;4.25;;;;;;;12.05;80.51;99469.97;1784544;80;21041;-53
2021/05/08 06:16:12;;;;;;;6.12;3.85;;;;;;;11.97;80.76;99477.56;1784362;80;21194;-53
2021/05/08 06:18:41;;;;;;;4.90;3.55;;;;;;;11.92;80.28;99479.83;1784322;80;21092;-53
2021/05/08 06:21:08;;;;;;;6.22;3.72;;;;;;;11.83;80.97;99482.22;1784511;80;21048;-53
2021/05/08 06:23:36;;;;;;;4.92;4.12;;;;;;;11.78;81.49;99485.08;1784293;80;20974;-53
2021/05/08 06:26:04;;;;;;;5.92;4.00;;;;;;;11.70;81.76;99488.80;1784469;80;21009;-53
2021/05/08 06:28:32;;;;;;;5.42;3.90;;;;;;;11.63;81.60;99488.38;1784454;80;21260;-53
2021/05/08 06:31:00;;;;;;;6.35;3.90;;;;;;;11.56;82.14;99492.06;1784222;80;21033;-53
2021/05/08 06:33:29;;;;;;;5.90;3.35;;;;;;;11.49;81.67;99497.14;1784299;80;20970;-53
2021/05/08 06:35:57;;;;;;;8.50;7.40;;;;;;;11.40;82.02;99501.14;1784380;80;21021;-53
2021/05/08 06:38:24;;;;;;;9.08;4.00;;;;;;;11.36;82.65;99503.69;1784393;79;20978;-53
2021/05/08 06:40:53;;;;;;;6.03;4.00;;;;;;;11.31;83.02;99507.89;1784502;80;21782;-52
2021/05/08 06:43:21;;;;;;;6.72;4.70;;;;;;;11.29;83.40;99503.80;1784343;80;21021;-52
2021/05/08 06:45:48;;;;;;;5.30;4.30;;;;;;;11.24;83.52;99509.67;1784325;79;21056;-53
2021/05/08 06:48:15;;;;;;;6.70;5.58;;;;;;;11.20;83.87;99507.27;1784202;80;21013;-53
2021/05/08 06:50:47;;;;;;;6.20;4.17;;;;;;;11.19;84.12;99508.94;1784285;80;21037;-54
2021/05/08 06:53:14;;;;;;;7.12;4.53;;;;;;;11.17;84.34;99509.78;1783033;80;23391;-54
2021/05/08 06:55:42;;;;;;;7.42;4.62;;;;;;;11.13;84.47;99508.20;1780293;80;21009;-54
2021/05/08 06:58:10;;;;;;;8.53;5.08;;;;;;;11.08;84.16;99511.02;1779732;80;21030;-54
2021/05/08 07:00:37;;;;;;;8.30;6.53;;;;;;;11.04;84.44;99516.85;1779247;80;21034;-53
2021/05/08 07:03:05;;;;;;;7.22;4.83;;;;;;;11.02;84.69;99519.91;1779675;80;21070;-53
2021/05/08 07:05:33;;;;;;;16.07;7.58;;;;;;;11.00;84.73;99523.52;1779267;80;21257;-53
2021/05/08 07:08:05;;;;;;;5.78;4.53;;;;;;;10.98;85.08;99527.67;1779681;80;21026;-53
2021/05/08 07:10:32;;;;;;;6.72;4.72;;;;;;;10.97;84.45;99528.21;1779617;80;21030;-54
2021/05/08 07:13:04;;;;;;;6.42;4.90;;;;;;;10.92;84.63;99535.17;1779438;80;21054;-54
2021/05/08 07:15:33;;;;;;;6.83;5.45;;;;;;;10.87;84.90;99543.48;1777055;80;21022;-54
2021/05/08 07:18:02;;;;;;;6.33;4.22;;;;;;;10.85;85.38;99545.72;1779411;80;21383;-54
2021/05/08 07:20:31;;;;;;;9.60;5.00;;;;;;;10.83;85.53;99554.80;1779606;80;20990;-54
2021/05/08 07:22:59;;;;;;;11.38;4.42;;;;;;;10.78;85.61;99553.52;1779654;80;21061;-54
2021/05/08 07:25:31;;;;;;;12.37;5.50;;;;;;;10.74;85.87;99560.70;1779446;80;21034;-54
2021/05/08 07:28:16;;;;;;;13.28;4.67;;;;;;;10.69;86.30;99569.27;1779819;80;21030;-54
2021/05/08 07:30:44;;;;;;;7.00;4.30;;;;;;;10.62;86.27;99561.95;1779478;80;21402;-54
2021/05/08 07:33:14;;;;;;;8.68;4.58;;;;;;;10.53;86.26;99577.44;1779507;80;20994;-54
2021/05/08 07:35:41;;;;;;;6.12;4.05;;;;;;;10.56;86.74;99583.73;1779664;80;21604;-54
2021/05/08 07:38:10;;;;;;;10.13;4.85;;;;;;;10.56;86.76;99596.09;1779578;80;20990;-54
2021/05/08 07:40:40;;;;;;;6.65;4.35;;;;;;;10.50;86.38;99604.94;1778478;80;22203;-54
2021/05/08 07:43:09;;;;;;;6.05;4.83;;;;;;;10.40;85.55;99617.39;1779683;80;21369;-54
2021/05/08 07:45:37;;;;;;;8.98;4.33;;;;;;;10.22;83.61;99629.92;1781134;80;21022;-53
2021/05/08 07:48:06;;;;;;;9.13;5.28;;;;;;;10.01;83.94;99632.86;1785167;80;21045;-53
2021/05/08 07:50:34;;;;;;;9.85;6.97;;;;;;;9.90;84.76;99642.28;1785102;80;21061;-54
2021/05/08 07:53:02;;;;;;;10.82;5.00;;;;;;;9.82;84.59;99645.67;1785166;79;21053;-53
2021/05/08 07:55:30;;;;;;;5.90;4.83;;;;;;;9.80;85.06;99647.33;1785146;80;21207;-54
2021/05/08 07:57:58;;;;;;;9.20;5.37;;;;;;;9.82;83.74;99650.59;1785228;80;21076;-53
2021/05/08 08:00:26;;;;;;;10.85;6.37;;;;;;;9.84;83.48;99655.79;1785016;80;21021;-53
2021/05/08 08:02:53;;;;;;;8.63;5.70;;;;;;;9.87;83.87;99653.84;1784980;80;21057;-53
2021/05/08 08:05:21;;;;;;;10.00;6.37;;;;;;;9.95;84.42;99660.08;1785097;79;21040;-53
2021/05/08 08:07:50;;;;;;;8.15;6.00;;;;;;;10.05;83.06;99663.86;1785111;80;21458;-53
2021/05/08 08:10:17;;;;;;;7.35;6.40;;;;;;;10.06;82.94;99673.70;1785144;80;21037;-54
2021/05/08 08:12:46;;;;;;;8.98;6.65;;;;;;;10.11;83.67;99684.08;1784996;80;21013;-53
2021/05/08 08:15:14;;;;;;;7.25;5.40;;;;;;;10.15;83.91;99689.82;1785129;79;21069;-53
2021/05/08 08:17:43;;;;;;;9.60;5.72;;;;;;;10.10;82.31;99680.25;1784963;80;21379;-53
2021/05/08 08:20:14;;;;;;;13.70;4.95;;;;;;;10.06;81.31;99695.66;1785206;79;20994;-53
2021/05/08 08:22:44;;;;;;;6.10;4.60;;;;;;;9.92;80.95;99705.92;1784812;80;21022;-53
2021/05/08 08:25:12;;;;;;;5.67;4.60;;;;;;;9.89;80.44;99696.06;1785009;80;21119;-53
2021/05/08 08:27:40;;;;;;;10.23;4.45;;;;;;;9.89;80.24;99696.90;1785182;80;21037;-53
2021/05/08 08:30:11;;;;;;;5.28;4.15;;;;;;;9.92;80.09;99696.32;1784938;79;21010;-52
2021/05/08 08:32:39;;;;;;;5.58;4.35;;;;;;;9.95;80.20;99692.19;1785075;80;21365;-53
2021/05/08 08:35:09;;;;;;;6.90;4.08;;;;;;;9.98;80.27;99697.09;1785065;80;20994;-52
2021/05/08 08:37:36;;;;;;;5.83;3.92;;;;;;;10.05;80.01;99717.36;1785054;80;21014;-53
2021/05/08 08:40:05;;;;;;;6.12;5.00;;;;;;;10.07;79.45;99727.48;1785158;79;21026;-53
2021/05/08 08:42:34;;;;;;;5.60;3.90;;;;;;;10.01;80.10;99730.25;1785041;80;21655;-53
2021/05/08 08:45:01;;;;;;;5.30;3.90;;;;;;;10.07;79.60;99724.73;1785115;80;21440;-53
2021/05/08 08:47:29;;;;;;;16.17;5.92;;;;;;;10.18;80.44;99710.63;1779862;80;21049;-53
2021/05/08 08:50:12;;;;;;;10.60;5.45;;;;;;;10.23;79.85;99722.14;1778984;80;21053;-53
2021/05/08 08:52:39;;;;;;;8.95;4.75;;;;;;;10.28;80.82;99715.20;1779446;80;20986;-53
2021/05/08 08:55:10;;;;;;;6.28;4.50;;;;;;;10.31;79.57;99719.31;1779541;80;21030;-53
2021/05/08 08:57:42;;;;;;;8.08;4.87;;;;;;;10.28;80.23;99724.81;1779497;80;21367;-53
2021/05/08 09:00:14;;;;;;;33.58;25.02;;;;;;;10.29;78.09;99723.72;1779500;80;21017;-52
2021/05/08 09:02:43;;;;;;;8.30;5.05;;;;;;;10.22;78.27;99717.75;1779390;80;20982;-53
2021/05/08 09:05:14;;;;;;;5.72;4.45;;;;;;;10.18;78.34;99731.20;1779498;80;21106;-56
2021/05/08 09:07:45;;;;;;;5.33;4.30;;;;;;;10.05;77.33;99718.16;1779605;80;21053;-53
2021/05/08 09:10:27;;;;;;;6.40;4.58;;;;;;;10.02;78.80;99739.32;1779654;80;21370;-53
2021/05/08 09:13:00;;;;;;;8.20;4.60;;;;;;;9.98;78.63;99734.94;1779334;80;21045;-53
2021/05/08 09:15:36;;;;;;;5.97;4.15;;;;;;;9.94;77.87;99732.50;1807207;78;21010;-53
2021/05/08 09:18:34;;;;;;;7.60;4.30;;;;;;;9.90;78.13;99736.11;1888684;76;22689;-53
2021/05/08 09:21:03;;;;;;;4.47;3.62;;;;;;;9.86;78.95;99746.84;1826516;77;21021;-53
2021/05/08 09:23:36;;;;;;;6.78;4.22;;;;;;;9.85;77.87;99747.94;1859464;77;22105;-53
2021/05/08 09:26:09;;;;;;;5.67;4.37;;;;;;;9.92;78.25;99747.63;1859391;77;21118;-53
2021/05/08 09:28:41;;;;;;;5.10;3.60;;;;;;;9.99;78.04;99747.56;1859620;77;21049;-53
2021/05/08 09:31:13;;;;;;;6.78;4.03;;;;;;;10.02;76.51;99747.55;1858203;77;21018;-53
2021/05/08 09:33:51;;;;;;;4.62;3.72;;;;;;;10.10;77.52;99739.24;1859401;77;21013;-53
2021/05/08 09:36:18;;;;;;;;;;;;;;;10.20;76.94;99755.62;1862399;77;21182;-53
2021/05/08 09:38:48;;;;;;;4.87;3.60;;;;;;;10.30;77.14;99743.20;1859619;77;20130;-53
2021/05/08 09:41:17;;;;;;;4.97;3.55;;;;;;;10.36;76.34;99746.19;1859417;77;21552;-53
2021/05/08 09:43:46;;;;;;;6.08;4.35;;;;;;;10.30;74.29;99758.30;1859565;77;21069;-53
2021/05/08 09:46:25;;;;;;;5.40;3.65;;;;;;;10.20;74.98;99764.69;1859685;77;20982;-53
2021/05/08 09:49:12;;;;;;;5.70;3.72;;;;;;;10.11;75.09;99770.52;1859703;77;21375;-53
2021/05/08 09:51:40;;;;;;;6.60;4.00;;;;;;;10.09;74.74;99771.89;1859656;77;21425;-53
2021/05/08 09:54:17;;;;;;;6.40;4.40;;;;;;;10.01;75.20;99786.49;1859284;77;21030;-53
2021/05/08 09:56:49;;;;;;;7.92;5.25;;;;;;;10.07;75.39;99776.30;1859428;77;21017;-53
2021/05/08 09:59:34;;;;;;;4.92;3.90;;;;;;;10.14;75.41;99778.16;1859507;77;21017;-53
2021/05/08 10:02:10;;;;;;;6.45;4.37;;;;;;;10.18;74.27;99772.94;1859822;77;21463;-53
2021/05/08 10:04:50;;;;;;;5.03;3.75;;;;;;;10.16;74.26;99775.13;1856401;77;21576;-53
2021/05/08 10:07:27;;;;;;;4.97;3.90;;;;;;;10.10;74.67;99783.98;1783316;80;21053;-53
2021/05/08 10:09:57;;;;;;;4.58;3.65;;;;;;;10.08;72.77;99775.77;1787012;80;20982;-53
2021/05/08 10:12:27;;;;;;;5.20;3.40;;;;;;;10.06;72.54;99788.94;1783255;80;21333;-53
2021/05/08 10:14:58;;;;;;;9.60;4.50;;;;;;;10.06;71.74;99783.45;1786557;80;21367;-53
2021/05/08 10:17:29;;;;;;;5.12;3.70;;;;;;;10.12;72.59;99792.73;1766876;80;21063;-53
2021/05/08 10:20:13;;;;;;;4.50;3.08;;;;;;;10.25;72.16;99806.92;1764920;81;20990;-54
2021/05/08 10:22:47;;;;;;;4.37;2.75;;;;;;;10.29;70.06;99806.06;1825279;78;21024;-53
2021/05/08 10:25:15;;;;;;;3.80;2.98;;;;;;;10.41;71.56;99801.59;1825332;78;21084;-54
2021/05/08 10:27:43;;;;;;;6.92;3.15;;;;;;;10.53;70.91;99808.91;1825333;78;21194;-51
2021/05/08 10:30:21;;;;;;;4.20;3.12;;;;;;;10.61;70.41;99808.83;1824855;78;21021;-53
2021/05/08 10:32:50;;;;;;;5.42;3.67;;;;;;;10.68;70.55;99820.86;1824834;78;20990;-53
2021/05/08 10:35:43;;;;;;;4.47;3.35;;;;;;;10.78;70.48;99833.69;1824867;78;21040;-53
2021/05/08 10:40:53;;;;;;;6.25;3.33;;;;;;;10.80;69.67;99842.45;1824971;78;21248;-53
2021/05/08 10:43:51;;;;;;;4.03;3.02;;;;;;;10.84;70.11;99841.57;1824668;78;21063;-54
2021/05/08 10:46:24;;;;;;;4.92;2.70;;;;;;;10.91;69.62;99824.75;1824878;78;21039;-53
2021/05/08 10:49:13;;;;;;;4.15;2.60;;;;;;;10.86;68.09;99834.41;1824759;78;21077;-54
2021/05/08 10:51:59;;;;;;;4.72;2.67;;;;;;;10.74;68.03;99827.94;1824984;78;22239;-53
2021/05/08 10:54:45;;;;;;;3.27;2.25;;;;;;;10.64;69.57;99843.95;1805847;78;21182;-52
2021/05/08 10:57:23;;;;;;;3.20;2.70;;;;;;;10.58;69.57;99840.19;1797700;79;21027;-53
2021/05/08 11:00:08;;;;;;;4.62;2.83;;;;;;;10.49;69.28;99855.89;1797792;79;21065;-52
2021/05/08 11:02:48;;;;;;;3.35;2.58;;;;;;;10.37;70.41;99853.52;1797783;79;21064;-52
2021/05/08 11:05:36;;;;;;;4.10;3.08;;;;;;;10.34;72.03;99851.32;1797806;79;21044;-53
2021/05/08 11:08:29;;;;;;;5.33;2.55;;;;;;;10.25;72.86;99861.82;1797737;79;22401;-53
2021/05/08 11:11:01;;;;;;;3.33;2.52;;;;;;;10.20;73.44;99866.23;1797681;79;21044;-53
2021/05/08 11:13:48;;;;;;;6.78;2.75;;;;;;;10.08;73.99;99886.89;1797707;79;21023;-53
2021/05/08 11:16:20;;;;;;;3.92;2.50;;;;;;;9.93;74.33;99905.08;1797698;79;21051;-53
2021/05/08 11:18:54;;;;;;;4.33;2.98;;;;;;;9.65;74.37;99890.92;1844484;77;21533;-53
2021/05/08 11:21:28;;;;;;;5.45;2.70;;;;;;;9.42;75.91;99897.86;1759866;81;21186;-53
2021/05/08 11:24:05;;;;;;;8.40;2.95;;;;;;;9.38;76.80;99895.96;1759566;81;21022;-53
2021/05/08 11:26:40;;;;;;;3.70;2.75;;;;;;;9.41;77.42;99907.73;1759545;81;21168;-53
2021/05/08 11:29:21;;;;;;;3.22;2.85;;;;;;;9.41;77.00;99909.91;1759679;80;21035;-53
2021/05/08 11:31:51;;;;;;;3.25;2.42;;;;;;;9.27;75.58;99930.22;1790758;79;21163;-52
2021/05/08 11:34:29;;;;;;;6.12;2.80;;;;;;;9.12;75.18;99938.48;1759513;81;21367;-52
2021/05/08 11:37:11;;;;;;;3.30;2.40;;;;;;;8.98;75.52;99939.58;1759547;81;21704;-53
2021/05/08 11:39:43;;;;;;;3.15;2.37;;;;;;;9.05;76.27;99927.80;1772999;80;21038;-53
2021/05/08 11:42:23;;;;;;;3.37;2.40;;;;;;;9.25;75.56;99954.35;1790741;79;21006;-53
2021/05/08 11:44:58;;;;;;;6.33;2.75;;;;;;;9.58;74.00;99948.54;1759663;80;21620;-53
2021/05/08 11:47:29;;;;;;;5.20;3.75;;;;;;;9.87;71.67;99959.67;1790863;80;21282;-53
2021/05/08 11:50:13;;;;;;;3.45;2.22;;;;;;;10.12;71.47;99977.97;1759546;81;20990;-53
2021/05/08 11:52:47;;;;;;;5.80;3.05;;;;;;;10.29;68.08;99970.75;1759586;81;21062;-53